Time;durP1;ratioP1;P1;durP2;ratioP2;P2;SDS_P1;SDS_P2;PMS_P1;PMS_P2;Temp;Humidity;BMP_temperature;BMP_pressure;BME280_temperature;BME280_humidity;BME280_pressure;Samples;Min_cycle;Max_cycle;Signal;HPM_P1;HPM_P2
2022/07/13 00:01:05;;;;;;;6.38;3.33;;;20.40;99.90;;;;;;5076484;28;37619;-61
2022/07/13 00:03:33;;;;;;;5.00;2.88;;;20.30;99.90;;;;;;5078976;28;35585;-61
2022/07/13 00:06:00;;;;;;;5.65;3.13;;;20.30;99.90;;;;;;5075023;28;37545;-61
2022/07/13 00:08:30;;;;;;;7.03;2.95;;;20.30;99.90;;;;;;5074337;28;37844;-61
2022/07/13 00:10:58;;;;;;;8.55;3.05;;;20.30;99.90;;;;;;5076506;28;35970;-61
2022/07/13 00:13:25;;;;;;;5.65;2.90;;;20.30;99.90;;;;;;5081850;28;36362;-61
2022/07/13 00:15:54;;;;;;;4.90;2.92;;;20.30;99.90;;;;;;5081272;28;38602;-60
2022/07/13 00:18:21;;;;;;;4.50;2.80;;;20.30;99.90;;;;;;5083981;28;38800;-60
2022/07/13 00:20:52;;;;;;;4.95;3.10;;;20.30;99.90;;;;;;5083846;28;36151;-61
2022/07/13 00:23:19;;;;;;;5.15;3.00;;;20.30;99.90;;;;;;5082250;28;36445;-60
2022/07/13 00:25:47;;;;;;;4.88;2.70;;;20.30;99.90;;;;;;5079791;28;38455;-61
2022/07/13 00:28:14;;;;;;;5.63;2.80;;;20.20;99.90;;;;;;5080741;28;36585;-60
2022/07/13 00:30:41;;;;;;;4.93;3.45;;;20.20;99.90;;;;;;5078747;28;37329;-60
2022/07/13 00:33:10;;;;;;;5.30;3.83;;;20.20;99.90;;;;;;5081508;28;36920;-60
2022/07/13 00:35:37;;;;;;;6.25;2.67;;;20.20;99.90;;;;;;5080787;28;39231;-60
2022/07/13 00:38:05;;;;;;;4.57;2.67;;;20.10;99.90;;;;;;5080579;28;38284;-61
2022/07/13 00:40:32;;;;;;;6.40;3.10;;;20.10;99.90;;;;;;5079471;28;37260;-61
2022/07/13 00:43:00;;;;;;;5.68;3.67;;;20.10;99.90;;;;;;5081103;28;37705;-61
2022/07/13 00:45:27;;;;;;;7.47;3.85;;;20.10;99.90;;;;;;5079835;28;37968;-61
2022/07/13 00:47:55;;;;;;;4.80;3.30;;;20.20;99.90;;;;;;5080530;28;38576;-61
2022/07/13 00:50:24;;;;;;;9.30;4.00;;;20.10;99.90;;;;;;5082332;28;37546;-61
2022/07/13 00:52:51;;;;;;;6.70;3.45;;;20.10;99.90;;;;;;5084064;28;36610;-61
2022/07/13 00:55:19;;;;;;;7.10;3.85;;;20.10;99.90;;;;;;5079175;28;37264;-61
2022/07/13 00:57:46;;;;;;;7.68;3.95;;;20.10;99.90;;;;;;5080919;28;37879;-61
2022/07/13 01:00:15;;;;;;;5.75;3.53;;;20.10;99.90;;;;;;5078930;28;40289;-61
2022/07/13 01:02:44;;;;;;;5.68;3.28;;;20.10;99.90;;;;;;5082699;28;37451;-61
2022/07/13 01:05:12;;;;;;;7.40;3.80;;;20.10;99.90;;;;;;5081941;28;38620;-61
2022/07/13 01:07:41;;;;;;;6.35;3.58;;;20.10;99.90;;;;;;5083712;28;37609;-61
2022/07/13 01:10:11;;;;;;;5.07;3.28;;;20.00;99.90;;;;;;5082727;28;37877;-61
2022/07/13 01:12:39;;;;;;;8.30;3.40;;;20.00;99.90;;;;;;5083164;28;35342;-61
2022/07/13 01:15:08;;;;;;;8.93;3.95;;;20.00;99.90;;;;;;5082609;28;37353;-61
2022/07/13 01:17:36;;;;;;;5.18;3.55;;;20.00;99.90;;;;;;5082210;28;38708;-61
2022/07/13 01:20:05;;;;;;;5.72;3.55;;;20.00;99.90;;;;;;5081983;28;37175;-61
2022/07/13 01:22:35;;;;;;;8.93;4.32;;;20.00;99.90;;;;;;5082028;27;37390;-61
2022/07/13 01:25:05;;;;;;;7.47;3.83;;;20.00;99.90;;;;;;5083329;28;38542;-61
2022/07/13 01:27:34;;;;;;;5.75;3.72;;;20.00;99.90;;;;;;5082031;28;39645;-61
2022/07/13 01:30:01;;;;;;;6.13;3.40;;;20.00;99.90;;;;;;5081613;28;37352;-60
2022/07/13 01:32:28;;;;;;;6.55;3.97;;;20.00;99.90;;;;;;5083085;28;36771;-61
2022/07/13 01:34:56;;;;;;;6.10;3.67;;;20.10;99.90;;;;;;5083040;28;38196;-61
2022/07/13 01:37:23;;;;;;;6.85;4.18;;;20.10;99.90;;;;;;5083266;28;36542;-61
2022/07/13 01:39:50;;;;;;;6.25;3.85;;;20.10;99.90;;;;;;5081070;28;37497;-60
2022/07/13 01:42:19;;;;;;;7.30;4.15;;;20.10;99.90;;;;;;5080477;28;36807;-61
2022/07/13 01:44:48;;;;;;;6.90;4.25;;;20.10;99.90;;;;;;5082441;28;38031;-61
2022/07/13 01:47:15;;;;;;;6.22;4.28;;;20.10;99.90;;;;;;5083713;28;37858;-61
2022/07/13 01:49:43;;;;;;;6.85;4.30;;;20.10;99.90;;;;;;5081892;28;37836;-61
2022/07/13 01:52:10;;;;;;;6.22;4.03;;;20.10;99.90;;;;;;5082430;28;36365;-61
2022/07/13 01:54:37;;;;;;;6.40;4.13;;;20.10;99.90;;;;;;5083929;28;38452;-61
2022/07/13 01:57:04;;;;;;;5.68;4.53;;;20.10;99.90;;;;;;5081151;28;37718;-61
2022/07/13 01:59:33;;;;;;;6.35;4.03;;;20.10;99.90;;;;;;5081875;28;37279;-61
2022/07/13 02:02:00;;;;;;;7.88;5.25;;;20.10;99.90;;;;;;5081096;28;36608;-61
2022/07/13 02:04:28;;;;;;;7.20;4.90;;;20.10;99.90;;;;;;5082668;28;37945;-61
2022/07/13 02:06:55;;;;;;;8.35;4.30;;;20.20;99.90;;;;;;5082534;28;38877;-61
2022/07/13 02:09:22;;;;;;;5.97;4.13;;;20.20;99.90;;;;;;5081991;28;37753;-61
2022/07/13 02:11:50;;;;;;;8.55;4.70;;;20.20;99.90;;;;;;5081528;28;36390;-61
2022/07/13 02:14:17;;;;;;;6.72;5.25;;;20.20;99.90;;;;;;5082970;28;37405;-61
2022/07/13 02:16:46;;;;;;;8.15;4.32;;;20.20;99.90;;;;;;5082747;28;38860;-61
2022/07/13 02:19:13;;;;;;;7.28;5.13;;;20.20;99.90;;;;;;5083872;28;37376;-61
2022/07/13 02:21:40;;;;;;;6.85;4.85;;;20.20;99.90;;;;;;5081315;28;36598;-60
2022/07/13 02:24:08;;;;;;;14.07;5.57;;;20.20;99.90;;;;;;5081926;28;37616;-61
2022/07/13 02:26:35;;;;;;;10.05;5.53;;;20.20;99.90;;;;;;5080747;28;37704;-61
2022/07/13 02:29:02;;;;;;;8.77;5.88;;;20.20;99.90;;;;;;5082344;28;37627;-61
2022/07/13 02:31:29;;;;;;;6.72;5.38;;;20.20;99.90;;;;;;5080003;28;36592;-61
2022/07/13 02:34:01;;;;;;;7.97;6.03;;;20.20;99.90;;;;;;5080220;27;37073;-61
2022/07/13 02:36:28;;;;;;;7.47;5.20;;;20.20;99.90;;;;;;5080916;28;37294;-61
2022/07/13 02:38:57;;;;;;;9.43;6.50;;;20.30;99.90;;;;;;5081211;28;37930;-61
2022/07/13 02:41:25;;;;;;;8.52;6.18;;;20.30;99.90;;;;;;5081230;28;36356;-60
2022/07/13 02:43:52;;;;;;;7.68;6.05;;;20.30;99.90;;;;;;5078122;28;37478;-60
2022/07/13 02:46:19;;;;;;;8.75;5.78;;;20.30;99.90;;;;;;5079416;28;36525;-61
2022/07/13 02:48:46;;;;;;;8.45;5.75;;;20.20;99.90;;;;;;5080631;28;37873;-61
2022/07/13 02:51:15;;;;;;;9.10;6.63;;;20.30;99.90;;;;;;5081504;28;37409;-61
2022/07/13 02:53:42;;;;;;;7.18;5.80;;;20.30;99.90;;;;;;5082094;28;38555;-61
2022/07/13 02:56:10;;;;;;;8.50;5.85;;;20.30;99.90;;;;;;5081743;28;37421;-60
2022/07/13 02:58:40;;;;;;;9.40;5.93;;;20.30;99.90;;;;;;5081217;28;39003;-61
2022/07/13 03:01:07;;;;;;;9.68;6.22;;;20.30;99.90;;;;;;5077017;28;36994;-61
2022/07/13 03:03:35;;;;;;;10.82;6.35;;;20.30;99.90;;;;;;5076578;28;38105;-61
2022/07/13 03:06:02;;;;;;;7.60;6.07;;;20.30;99.90;;;;;;5078581;28;37863;-60
2022/07/13 03:08:32;;;;;;;7.82;5.63;;;20.30;99.90;;;;;;5079250;28;37292;-61
2022/07/13 03:11:00;;;;;;;7.55;6.45;;;20.30;99.90;;;;;;5081982;28;37758;-60
2022/07/13 03:13:27;;;;;;;9.93;5.80;;;20.30;99.90;;;;;;5081501;28;37691;-61
2022/07/13 03:15:54;;;;;;;9.20;6.50;;;20.30;99.90;;;;;;5080257;28;37861;-61
2022/07/13 03:18:21;;;;;;;7.95;5.95;;;20.30;99.90;;;;;;5080738;28;37201;-61
2022/07/13 03:20:49;;;;;;;7.22;5.72;;;20.20;99.90;;;;;;5080895;28;35935;-60
2022/07/13 03:23:16;;;;;;;8.23;6.20;;;20.20;99.90;;;;;;5081334;28;38503;-61
2022/07/13 03:25:45;;;;;;;8.45;6.35;;;20.20;99.90;;;;;;5080116;28;39169;-61
2022/07/13 03:28:13;;;;;;;9.20;5.97;;;20.20;99.90;;;;;;5079106;28;38021;-61
2022/07/13 03:30:40;;;;;;;7.20;5.95;;;20.20;99.90;;;;;;5081251;28;37199;-61
2022/07/13 03:33:07;;;;;;;7.68;5.55;;;20.20;99.90;;;;;;5082005;28;38425;-61
2022/07/13 03:35:34;;;;;;;8.70;6.88;;;20.20;99.90;;;;;;5081201;28;38587;-61
2022/07/13 03:38:02;;;;;;;9.35;6.50;;;20.20;99.90;;;;;;5082010;28;36022;-60
2022/07/13 03:40:29;;;;;;;7.65;6.07;;;20.20;99.90;;;;;;5081051;28;36375;-61
2022/07/13 03:42:58;;;;;;;8.20;5.90;;;20.20;99.90;;;;;;5081029;28;36356;-60
2022/07/13 03:45:25;;;;;;;8.93;6.85;;;20.20;99.90;;;;;;5082730;27;38528;-60
2022/07/13 03:47:53;;;;;;;10.23;6.88;;;20.20;99.90;;;;;;5084872;28;38743;-60
2022/07/13 03:50:20;;;;;;;8.15;6.13;;;20.20;99.90;;;;;;5082778;28;37024;-60
2022/07/13 03:52:47;;;;;;;11.45;6.15;;;20.20;99.90;;;;;;5084905;28;38321;-60
2022/07/13 03:55:15;;;;;;;9.15;6.47;;;20.20;99.90;;;;;;5084521;28;37957;-61
2022/07/13 03:57:42;;;;;;;10.98;6.72;;;20.20;99.90;;;;;;5083423;28;38352;-61
2022/07/13 04:00:12;;;;;;;9.70;6.57;;;20.20;99.90;;;;;;5084419;28;35435;-61
2022/07/13 04:02:39;;;;;;;9.18;6.88;;;20.20;99.90;;;;;;5084404;28;38682;-61
2022/07/13 04:05:08;;;;;;;8.48;7.15;;;20.20;99.90;;;;;;5083833;28;37123;-61
2022/07/13 04:07:35;;;;;;;8.57;6.20;;;20.20;99.90;;;;;;5084634;28;36188;-61
2022/07/13 04:10:03;;;;;;;8.43;6.45;;;20.20;99.90;;;;;;5084088;28;36600;-61
2022/07/13 04:12:30;;;;;;;9.57;6.50;;;20.30;99.90;;;;;;5083700;28;38745;-61
2022/07/13 04:14:57;;;;;;;7.80;6.13;;;20.20;99.90;;;;;;5084223;28;38496;-61
2022/07/13 04:17:26;;;;;;;8.98;6.72;;;20.30;99.90;;;;;;5083669;28;37667;-61
2022/07/13 04:19:53;;;;;;;9.85;6.78;;;20.20;99.90;;;;;;5084166;28;37946;-61
2022/07/13 04:22:21;;;;;;;8.20;6.15;;;20.20;99.90;;;;;;5084272;28;37350;-61
2022/07/13 04:24:48;;;;;;;8.40;6.50;;;20.20;99.90;;;;;;5083565;28;37732;-61
2022/07/13 04:27:16;;;;;;;9.68;6.47;;;20.20;99.90;;;;;;5084517;28;37461;-61
2022/07/13 04:29:43;;;;;;;8.40;7.00;;;20.20;99.90;;;;;;5082662;28;36426;-61
2022/07/13 04:32:10;;;;;;;8.20;6.80;;;20.20;99.90;;;;;;5083783;28;38112;-61
2022/07/13 04:34:39;;;;;;;10.00;6.90;;;20.20;99.90;;;;;;5082304;28;37887;-61
2022/07/13 04:37:06;;;;;;;9.70;6.78;;;20.20;99.90;;;;;;5083284;28;38554;-61
2022/07/13 04:39:33;;;;;;;8.88;5.78;;;20.30;99.90;;;;;;5082141;28;36313;-61
2022/07/13 04:42:01;;;;;;;8.77;6.32;;;20.30;99.90;;;;;;5083064;28;37797;-61
2022/07/13 04:44:28;;;;;;;8.60;6.15;;;20.30;99.90;;;;;;5083704;28;38800;-61
2022/07/13 04:46:55;;;;;;;8.80;5.88;;;20.30;99.90;;;;;;5083222;28;36513;-61
2022/07/13 04:49:23;;;;;;;7.97;5.72;;;20.30;99.90;;;;;;5082497;28;36546;-61
2022/07/13 04:51:52;;;;;;;8.90;5.72;;;20.30;99.90;;;;;;5084100;28;37365;-61
2022/07/13 04:54:20;;;;;;;8.82;6.13;;;20.30;99.90;;;;;;5081733;28;38888;-61
2022/07/13 04:56:48;;;;;;;8.18;5.93;;;20.30;99.90;;;;;;5082269;27;37339;-61
2022/07/13 04:59:15;;;;;;;9.65;6.53;;;20.30;99.90;;;;;;5083540;28;36938;-60
2022/07/13 05:01:43;;;;;;;8.75;6.05;;;20.30;99.90;;;;;;5083170;28;36976;-61
2022/07/13 05:04:11;;;;;;;7.22;5.32;;;20.30;99.90;;;;;;5083439;28;36637;-61
2022/07/13 05:06:38;;;;;;;8.85;6.25;;;20.30;99.90;;;;;;5083571;28;36675;-60
2022/07/13 05:09:06;;;;;;;9.10;5.75;;;20.20;99.90;;;;;;5081063;28;37715;-61
2022/07/13 05:11:34;;;;;;;9.18;6.57;;;20.30;99.90;;;;;;5078042;28;37046;-61
2022/07/13 05:14:01;;;;;;;7.80;5.93;;;20.30;99.90;;;;;;5078563;28;38714;-60
2022/07/13 05:16:28;;;;;;;8.70;5.88;;;20.30;99.90;;;;;;5083158;28;37213;-61
2022/07/13 05:18:57;;;;;;;9.82;6.32;;;20.20;99.90;;;;;;5078020;28;37075;-61
2022/07/13 05:21:24;;;;;;;9.48;5.88;;;20.20;99.90;;;;;;5078376;28;37731;-60
2022/07/13 05:23:52;;;;;;;9.13;6.05;;;20.20;99.90;;;;;;5079442;28;38503;-61
2022/07/13 05:26:20;;;;;;;8.98;6.85;;;20.20;99.90;;;;;;5080051;28;37119;-61
2022/07/13 05:28:48;;;;;;;9.15;6.32;;;20.30;99.90;;;;;;5080104;28;35416;-61
2022/07/13 05:31:15;;;;;;;9.75;7.03;;;20.30;99.90;;;;;;5079942;28;37532;-60
2022/07/13 05:33:42;;;;;;;9.00;6.68;;;20.20;99.90;;;;;;5081929;28;37870;-61
2022/07/13 05:36:10;;;;;;;8.57;6.22;;;20.20;99.90;;;;;;5082482;28;38816;-61
2022/07/13 05:38:37;;;;;;;9.05;7.03;;;20.20;99.90;;;;;;5077361;28;36670;-61
2022/07/13 05:41:05;;;;;;;8.38;6.28;;;20.20;99.90;;;;;;5078605;28;38932;-60
2022/07/13 05:43:34;;;;;;;8.63;6.45;;;20.20;99.90;;;;;;5079523;28;37772;-60
2022/07/13 05:46:01;;;;;;;9.82;7.18;;;20.30;99.90;;;;;;5079411;28;36213;-61
2022/07/13 05:48:28;;;;;;;10.52;7.88;;;20.30;99.90;;;;;;5082905;28;36805;-60
2022/07/13 05:50:56;;;;;;;9.88;7.53;;;20.30;99.90;;;;;;5076706;28;38431;-60
2022/07/13 05:53:23;;;;;;;11.80;6.75;;;20.30;99.90;;;;;;5081005;28;37869;-61
2022/07/13 05:55:51;;;;;;;14.45;7.93;;;20.30;99.90;;;;;;5082668;28;37609;-61
2022/07/13 05:58:18;;;;;;;12.30;8.00;;;20.30;99.90;;;;;;5082936;28;36307;-61
2022/07/13 06:00:47;;;;;;;11.77;7.72;;;20.30;99.90;;;;;;5080336;28;37585;-61
2022/07/13 06:03:15;;;;;;;9.25;7.10;;;20.30;99.90;;;;;;5082016;28;38294;-61
2022/07/13 06:05:42;;;;;;;11.48;8.27;;;20.40;99.90;;;;;;5083148;28;38666;-61
2022/07/13 06:08:09;;;;;;;11.10;8.00;;;20.40;99.90;;;;;;5082252;28;37475;-61
2022/07/13 06:10:37;;;;;;;11.95;8.55;;;20.40;99.90;;;;;;5083798;28;37566;-60
2022/07/13 06:13:04;;;;;;;21.67;9.18;;;20.40;99.90;;;;;;5083181;28;38425;-61
2022/07/13 06:15:31;;;;;;;19.23;8.20;;;20.40;99.90;;;;;;5080705;28;37249;-61
2022/07/13 06:18:00;;;;;;;12.05;8.43;;;20.40;99.90;;;;;;5082339;28;36837;-60
2022/07/13 06:20:27;;;;;;;14.93;8.27;;;20.40;99.90;;;;;;5084339;28;37058;-61
2022/07/13 06:23:10;;;;;;;11.27;8.80;;;20.40;99.90;;;;;;5084034;28;38633;-61
2022/07/13 06:25:37;;;;;;;12.47;8.60;;;20.50;99.90;;;;;;5084772;28;37608;-61
2022/07/13 06:28:05;;;;;;;12.05;9.13;;;20.50;99.90;;;;;;5084089;28;36102;-60
2022/07/13 06:30:33;;;;;;;26.30;10.00;;;20.60;99.90;;;;;;5083782;28;38397;-61
2022/07/13 06:33:02;;;;;;;14.15;8.45;;;20.70;99.90;;;;;;5084184;28;38664;-60
2022/07/13 06:35:30;;;;;;;13.20;9.05;;;20.70;99.90;;;;;;5084057;28;37207;-61
2022/07/13 06:37:58;;;;;;;15.60;9.27;;;20.80;99.90;;;;;;5084165;28;36679;-61
2022/07/13 06:40:25;;;;;;;11.18;7.63;;;20.80;99.90;;;;;;5083578;28;35509;-62
2022/07/13 06:42:53;;;;;;;14.68;8.60;;;20.90;99.90;;;;;;5083483;28;37245;-60
2022/07/13 06:45:21;;;;;;;15.80;9.35;;;21.00;99.90;;;;;;5081289;28;37806;-61
2022/07/13 06:47:48;;;;;;;10.45;8.18;;;21.10;99.90;;;;;;5083117;28;37601;-61
2022/07/13 06:50:17;;;;;;;13.10;7.90;;;21.40;99.90;;;;;;5082172;28;36399;-61
2022/07/13 06:52:44;;;;;;;11.32;7.68;;;21.60;99.90;;;;;;5085246;28;37604;-60
2022/07/13 06:55:12;;;;;;;12.48;8.02;;;21.70;99.90;;;;;;5085171;28;37453;-61
2022/07/13 06:57:40;;;;;;;13.07;7.50;;;21.90;99.90;;;;;;5083903;28;37217;-60
2022/07/13 07:00:09;;;;;;;11.55;7.82;;;22.00;99.90;;;;;;5083718;28;36985;-61
2022/07/13 07:02:37;;;;;;;12.45;7.78;;;22.10;99.90;;;;;;5084530;28;37839;-61
2022/07/13 07:05:05;;;;;;;11.93;7.88;;;22.20;99.90;;;;;;5080181;28;36136;-60
2022/07/13 07:07:34;;;;;;;10.30;7.00;;;22.30;99.90;;;;;;5080763;27;36377;-61
2022/07/13 07:10:01;;;;;;;13.70;7.40;;;22.40;99.90;;;;;;5080431;28;37432;-62
2022/07/13 07:12:29;;;;;;;9.68;6.68;;;22.40;99.90;;;;;;5079752;28;37582;-61
2022/07/13 07:14:56;;;;;;;13.55;6.85;;;22.50;99.90;;;;;;5079983;28;38227;-61
2022/07/13 07:17:23;;;;;;;11.40;6.93;;;22.60;99.90;;;;;;5081133;28;35422;-61
2022/07/13 07:19:51;;;;;;;10.82;6.88;;;22.60;99.90;;;;;;5083018;28;37551;-61
2022/07/13 07:22:18;;;;;;;11.15;7.18;;;22.70;99.90;;;;;;5084842;28;37785;-61
2022/07/13 07:24:47;;;;;;;11.45;7.65;;;22.70;99.90;;;;;;5083901;28;36322;-61
2022/07/13 07:40:15;;;;;;;18.00;9.52;;;23.00;99.90;;;;;;5940655;22;20057;-60
2022/07/13 07:42:42;;;;;;;28.08;11.63;;;23.10;99.90;;;;;;5345423;22;36532;-62
2022/07/13 07:45:10;;;;;;;21.25;10.02;;;23.10;99.90;;;;;;5099031;27;37280;-60
2022/07/13 07:47:38;;;;;;;24.05;10.65;;;23.20;99.90;;;;;;5092455;27;37138;-61
2022/07/13 07:52:58;;;;;;;40.08;12.73;;;23.30;99.90;;;;;;5062115;28;20053;-62
2022/07/13 07:55:27;;;;;;;45.38;11.73;;;23.40;99.90;;;;;;5062353;28;38270;-62
2022/07/13 07:57:54;;;;;;;16.08;8.93;;;23.40;99.90;;;;;;5056157;28;36591;-61
2022/07/13 08:00:22;;;;;;;15.07;9.65;;;23.50;99.90;;;;;;5062988;28;38458;-61
2022/07/13 08:02:50;;;;;;;21.42;9.20;;;23.50;99.90;;;;;;5055711;28;39025;-61
2022/07/13 08:05:18;;;;;;;13.77;8.65;;;23.50;99.90;;;;;;5063328;28;36143;-61
2022/07/13 08:07:46;;;;;;;13.00;9.50;;;23.50;99.90;;;;;;5054051;28;36803;-62
2022/07/13 08:10:14;;;;;;;14.13;10.18;;;23.60;99.90;;;;;;5061235;28;37260;-61
2022/07/13 08:12:43;;;;;;;20.27;9.50;;;23.60;99.90;;;;;;5053907;28;40293;-61
2022/07/13 08:15:11;;;;;;;13.93;9.18;;;23.70;99.90;;;;;;5061467;28;38685;-61
2022/07/13 08:17:39;;;;;;;12.93;9.25;;;23.70;99.90;;;;;;5058350;28;37326;-62
2022/07/13 08:20:07;;;;;;;12.43;9.15;;;23.80;99.90;;;;;;5057617;28;38784;-63
2022/07/13 08:22:35;;;;;;;20.98;10.10;;;23.90;99.90;;;;;;5059761;28;38327;-62
2022/07/13 08:25:02;;;;;;;11.57;8.40;;;23.90;99.90;;;;;;5061027;28;36397;-62
2022/07/13 08:27:30;;;;;;;14.73;7.75;;;24.00;99.90;;;;;;5059171;28;36753;-62
2022/07/13 08:29:59;;;;;;;17.95;7.72;;;24.00;99.70;;;;;;5057506;28;38649;-61
2022/07/13 08:32:27;;;;;;;12.32;8.10;;;24.00;99.50;;;;;;5052034;28;38478;-61
2022/07/13 08:40:24;;;;;;;15.07;7.53;;;24.10;99.40;;;;;;5060567;28;39714;-61
2022/07/13 08:42:52;;;;;;;11.10;6.45;;;24.20;99.30;;;;;;5058091;28;36409;-61
2022/07/13 08:45:21;;;;;;;10.07;6.95;;;24.30;99.10;;;;;;5058067;28;39639;-60
2022/07/13 08:47:48;;;;;;;10.40;6.20;;;24.40;99.00;;;;;;5061872;28;37466;-56
2022/07/13 08:50:17;;;;;;;13.35;6.00;;;24.40;99.00;;;;;;5060548;28;37693;-55
2022/07/13 08:52:45;;;;;;;19.13;6.15;;;24.50;98.60;;;;;;5060339;28;37197;-56
2022/07/13 08:55:12;;;;;;;13.23;6.00;;;24.60;98.30;;;;;;5058210;28;37411;-57
2022/07/13 08:57:40;;;;;;;12.38;6.90;;;24.70;98.10;;;;;;5058449;28;36169;-55
2022/07/13 09:00:11;;;;;;;8.68;4.53;;;24.70;97.70;;;;;;5056712;28;38005;-56
2022/07/13 09:02:40;;;;;;;10.65;5.20;;;24.80;97.70;;;;;;5059713;28;37692;-56
2022/07/13 09:05:08;;;;;;;9.50;4.85;;;24.90;97.50;;;;;;5059341;28;37489;-56
2022/07/13 09:07:36;;;;;;;9.40;4.20;;;25.00;97.30;;;;;;5061034;28;37256;-56
2022/07/13 09:10:05;;;;;;;10.40;4.68;;;25.00;96.70;;;;;;5059427;28;38355;-56
2022/07/13 09:12:33;;;;;;;13.50;3.83;;;25.10;95.90;;;;;;5060507;28;39325;-56
2022/07/13 09:15:02;;;;;;;8.15;3.70;;;25.20;96.20;;;;;;5059666;28;37391;-56
2022/07/13 09:17:35;;;;;;;9.95;4.20;;;25.20;95.50;;;;;;5059090;28;36445;-56
2022/07/13 09:20:18;;;;;;;7.40;4.47;;;25.30;95.70;;;;;;5060277;28;37501;-56
2022/07/13 09:22:50;;;;;;;11.77;4.60;;;25.40;95.70;;;;;;5060189;28;37372;-56
2022/07/13 09:25:28;;;;;;;9.77;4.78;;;25.40;95.80;;;;;;5059953;28;36821;-56
2022/07/13 09:27:55;;;;;;;9.80;4.93;;;25.50;95.30;;;;;;5059052;28;36597;-56
2022/07/13 09:30:25;;;;;;;10.68;5.03;;;25.50;95.20;;;;;;5059000;28;36946;-62
2022/07/13 09:32:54;;;;;;;8.30;4.32;;;25.60;94.90;;;;;;5057499;28;37622;-61
2022/07/13 09:35:42;;;;;;;7.53;3.45;;;25.60;94.50;;;;;;5058326;28;38779;-62
2022/07/13 09:38:09;;;;;;;5.80;2.60;;;25.70;93.90;;;;;;5059091;28;37105;-62
2022/07/13 09:40:37;;;;;;;10.32;3.00;;;25.70;93.60;;;;;;5059321;28;37300;-62
2022/07/13 09:48:34;;;;;;;17.13;2.63;;;25.90;92.00;;;;;;5061090;28;39023;-62
2022/07/13 09:51:05;;;;;;;11.30;2.58;;;25.90;90.80;;;;;;5060448;28;20609;-62
2022/07/13 09:53:33;;;;;;;7.45;2.40;;;25.90;90.90;;;;;;5057685;28;38307;-62
2022/07/13 09:56:03;;;;;;;9.90;2.42;;;25.90;91.70;;;;;;5058881;28;37521;-62
2022/07/13 09:58:32;;;;;;;7.97;2.80;;;25.90;91.90;;;;;;5060132;28;38440;-62
2022/07/13 10:01:02;;;;;;;6.07;2.58;;;25.90;91.30;;;;;;5061116;28;37223;-61
2022/07/13 10:03:30;;;;;;;9.55;2.50;;;25.90;91.10;;;;;;5060044;28;37039;-61
2022/07/13 10:06:00;;;;;;;6.07;2.60;;;25.90;91.00;;;;;;5059083;28;37157;-62
2022/07/13 10:08:29;;;;;;;8.90;3.10;;;25.80;91.60;;;;;;5058227;28;38315;-65
2022/07/13 10:10:57;;;;;;;10.63;3.20;;;25.90;91.90;;;;;;5056623;28;37637;-61
2022/07/13 10:13:24;;;;;;;6.82;2.85;;;25.90;92.30;;;;;;5059045;28;38799;-62
2022/07/13 10:15:52;;;;;;;11.00;2.45;;;26.00;92.30;;;;;;5055576;28;37157;-61
2022/07/13 10:18:23;;;;;;;26.27;4.63;;;26.10;92.50;;;;;;5058518;28;35470;-60
2022/07/13 10:20:55;;;;;;;12.43;3.00;;;26.10;92.70;;;;;;5057846;28;36272;-61
2022/07/13 10:23:35;;;;;;;18.88;3.30;;;26.10;91.60;;;;;;5054916;28;36491;-58
2022/07/13 10:26:03;;;;;;;13.52;2.13;;;26.10;90.30;;;;;;5057055;28;37133;-58
2022/07/13 10:28:30;;;;;;;12.45;3.67;;;26.00;89.50;;;;;;5057630;28;36061;-58
2022/07/13 10:31:18;;;;;;;16.63;2.80;;;26.00;87.90;;;;;;5057511;28;38802;-59
2022/07/13 10:33:46;;;;;;;11.30;2.92;;;26.00;87.00;;;;;;5055903;28;37265;-60
2022/07/13 10:36:13;;;;;;;13.85;3.00;;;26.00;86.90;;;;;;5054708;28;37532;-60
2022/07/13 10:38:42;;;;;;;9.32;2.47;;;26.00;85.40;;;;;;5056129;28;36354;-61
2022/07/13 10:41:20;;;;;;;19.00;2.97;;;26.00;84.30;;;;;;5057812;28;38741;-61
2022/07/13 10:43:54;;;;;;;26.15;3.22;;;26.00;83.90;;;;;;5058182;28;39355;-62
2022/07/13 10:46:45;;;;;;;37.83;5.95;;;26.00;83.40;;;;;;5058131;28;36084;-62
2022/07/13 10:49:34;;;;;;;21.17;3.10;;;26.00;79.50;;;;;;5055525;28;37183;-62
2022/07/13 10:52:52;;;;;;;29.63;4.57;;;26.00;80.00;;;;;;5055800;28;38296;-62
2022/07/13 10:55:34;;;;;;;9.00;2.63;;;26.00;78.60;;;;;;5056374;28;40046;-62
2022/07/13 10:58:40;;;;;;;7.70;2.08;;;26.00;82.00;;;;;;5057028;28;36391;-62
2022/07/13 11:01:41;;;;;;;4.22;1.50;;;26.00;77.10;;;;;;5057963;28;37390;-62
2022/07/13 11:04:11;;;;;;;2.50;1.38;;;25.90;77.10;;;;;;5055143;28;38589;-62
2022/07/13 11:06:39;;;;;;;5.88;1.65;;;25.90;78.70;;;;;;5056013;28;38866;-63
2022/07/13 11:09:13;;;;;;;10.27;2.03;;;25.80;79.40;;;;;;5057182;28;38547;-62
2022/07/13 11:11:55;;;;;;;3.83;1.45;;;25.80;79.20;;;;;;5057297;28;36822;-62
2022/07/13 11:14:47;;;;;;;2.75;1.17;;;25.80;79.00;;;;;;5056967;28;37811;-62
2022/07/13 11:17:15;;;;;;;2.38;1.30;;;25.80;78.80;;;;;;5056461;28;38213;-62
2022/07/13 11:19:54;;;;;;;4.25;1.52;;;25.80;79.50;;;;;;5056223;28;37458;-62
2022/07/13 11:22:22;;;;;;;5.07;1.50;;;25.80;80.20;;;;;;5056570;28;36321;-62
2022/07/13 11:25:16;;;;;;;4.57;1.70;;;25.70;80.10;;;;;;5057293;28;38043;-62
2022/07/13 11:27:59;;;;;;;5.50;1.80;;;25.70;80.50;;;;;;5056354;28;37763;-62
2022/07/13 11:30:30;;;;;;;7.13;1.60;;;25.70;82.00;;;;;;5059212;28;36082;-63
2022/07/13 11:32:58;;;;;;;6.43;1.55;;;25.50;82.80;;;;;;5057357;28;37511;-62
2022/07/13 11:35:25;;;;;;;4.38;1.30;;;25.30;85.10;;;;;;5058054;28;38671;-62
2022/07/13 11:37:54;;;;;;;6.43;1.42;;;25.30;85.60;;;;;;5056907;28;37947;-62
2022/07/13 11:40:32;;;;;;;4.00;1.92;;;25.20;86.40;;;;;;5058948;28;36032;-62
2022/07/13 11:43:02;;;;;;;4.60;1.55;;;25.20;88.20;;;;;;5057116;28;37089;-62
2022/07/13 11:45:31;;;;;;;5.80;1.88;;;25.10;89.30;;;;;;5058252;28;38655;-62
2022/07/13 11:47:59;;;;;;;3.83;1.80;;;25.00;90.70;;;;;;5057595;28;37936;-62
2022/07/13 11:50:40;;;;;;;7.25;1.88;;;25.00;91.00;;;;;;5058309;28;36324;-63
2022/07/13 11:53:07;;;;;;;3.58;1.70;;;25.00;91.60;;;;;;5059317;28;35561;-62
2022/07/13 11:55:36;;;;;;;5.10;1.95;;;25.00;91.80;;;;;;5058813;28;37725;-62
2022/07/13 11:58:21;;;;;;;4.15;1.75;;;24.90;92.00;;;;;;5057549;28;38098;-60
2022/07/13 12:00:48;;;;;;;6.90;2.20;;;24.90;92.70;;;;;;5055776;28;38545;-62
2022/07/13 12:03:16;;;;;;;5.85;1.88;;;24.90;93.00;;;;;;5055473;28;37064;-62
2022/07/13 12:05:44;;;;;;;6.07;2.17;;;24.80;93.20;;;;;;5055643;28;37591;-62
2022/07/13 12:08:12;;;;;;;4.75;2.15;;;24.80;93.50;;;;;;5060826;28;37871;-62
2022/07/13 12:10:39;;;;;;;5.05;1.45;;;24.80;93.60;;;;;;5061129;28;36127;-62
2022/07/13 12:13:08;;;;;;;4.60;1.88;;;24.80;92.90;;;;;;5060688;28;36144;-61
2022/07/13 12:15:36;;;;;;;9.75;2.20;;;24.70;92.90;;;;;;5061218;28;37463;-62
2022/07/13 12:18:05;;;;;;;3.67;1.30;;;24.70;93.00;;;;;;5061465;28;38835;-62
2022/07/13 12:20:34;;;;;;;5.20;1.73;;;24.70;92.70;;;;;;5057698;28;37456;-61
2022/07/13 12:23:01;;;;;;;4.78;1.55;;;24.70;93.10;;;;;;5060017;28;36341;-61
2022/07/13 12:25:31;;;;;;;4.63;1.63;;;24.70;93.00;;;;;;5060087;28;38267;-61
2022/07/13 12:28:00;;;;;;;5.68;2.00;;;24.70;93.60;;;;;;5058593;28;39986;-62
2022/07/13 12:30:31;;;;;;;6.97;2.00;;;24.70;93.90;;;;;;5058836;28;36222;-61
2022/07/13 12:33:00;;;;;;;6.70;2.35;;;24.70;94.20;;;;;;5059938;28;35178;-61
2022/07/13 12:35:29;;;;;;;5.20;1.92;;;24.60;94.60;;;;;;5059833;28;36382;-62
2022/07/13 12:37:57;;;;;;;8.93;1.90;;;24.60;94.80;;;;;;5061010;28;38740;-62
2022/07/13 12:40:38;;;;;;;6.13;2.00;;;24.60;94.60;;;;;;5059562;28;38085;-61
2022/07/13 12:43:05;;;;;;;5.63;1.90;;;24.50;95.40;;;;;;5060684;28;36567;-62
2022/07/13 12:45:34;;;;;;;10.70;1.90;;;24.50;95.70;;;;;;5060496;28;36269;-62
2022/07/13 12:48:02;;;;;;;4.55;1.77;;;24.40;95.70;;;;;;5058379;28;36459;-62
2022/07/13 12:50:32;;;;;;;8.85;1.95;;;24.40;95.70;;;;;;5060580;28;35924;-62
2022/07/13 12:53:01;;;;;;;8.35;1.95;;;24.40;95.60;;;;;;5040537;28;37158;-62
2022/07/13 12:55:29;;;;;;;4.18;1.92;;;24.40;95.80;;;;;;5039046;28;37573;-62
2022/07/13 12:57:56;;;;;;;4.60;1.60;;;24.40;95.80;;;;;;5039724;28;38891;-62
2022/07/13 13:00:26;;;;;;;5.22;1.80;;;24.40;95.80;;;;;;5040688;28;36228;-62
2022/07/13 13:02:55;;;;;;;5.65;1.83;;;24.40;95.60;;;;;;5040016;28;36279;-62
2022/07/13 13:05:23;;;;;;;9.30;2.15;;;24.40;95.40;;;;;;5040460;28;38579;-62
2022/07/13 13:07:50;;;;;;;5.30;2.20;;;24.40;95.60;;;;;;5039543;28;38302;-62
2022/07/13 13:10:17;;;;;;;6.43;2.22;;;24.30;95.50;;;;;;5039484;28;38223;-62
2022/07/13 13:12:45;;;;;;;5.57;1.83;;;24.20;95.50;;;;;;5038478;28;36431;-62
2022/07/13 13:15:12;;;;;;;8.65;2.28;;;24.20;95.70;;;;;;5038779;28;36259;-62
2022/07/13 13:17:39;;;;;;;5.03;1.92;;;24.20;95.80;;;;;;5038583;28;37814;-62
2022/07/13 13:20:09;;;;;;;4.35;1.63;;;24.20;95.70;;;;;;5041085;28;37617;-62